createdAt,value
2018-11-13T00:00:30.561Z,8.40
2018-11-13T00:02:59.711Z,8.40
2018-11-13T00:05:28.300Z,8.30
2018-11-13T00:07:56.771Z,8.30
2018-11-13T00:10:25.977Z,8.40
2018-11-13T00:12:54.347Z,8.40
2018-11-13T00:15:22.822Z,8.40
2018-11-13T00:17:51.203Z,8.40
2018-11-13T00:20:19.906Z,8.40
2018-11-13T00:22:48.408Z,8.40
2018-11-13T00:25:17.794Z,8.40
2018-11-13T00:27:46.453Z,8.40
2018-11-13T00:30:16.624Z,8.40
2018-11-13T00:32:45.266Z,8.40
2018-11-13T00:35:14.532Z,8.40
2018-11-13T00:37:43.349Z,8.30
2018-11-13T00:40:12.373Z,8.30
2018-11-13T00:42:41.793Z,8.30
2018-11-13T00:45:10.318Z,8.30
2018-11-13T00:47:38.843Z,8.30
2018-11-13T00:50:10.354Z,8.30
2018-11-13T00:52:40.428Z,8.30
2018-11-13T00:55:08.871Z,8.40
2018-11-13T00:57:37.304Z,8.30
2018-11-13T01:00:08.867Z,8.30
2018-11-13T01:02:37.283Z,8.30
2018-11-13T01:05:07.364Z,8.30
2018-11-13T01:07:38.053Z,8.30
2018-11-13T01:10:07.574Z,8.30
2018-11-13T01:12:36.000Z,8.30
2018-11-13T01:15:04.923Z,8.30
2018-11-13T01:17:33.422Z,8.30
2018-11-13T01:20:01.657Z,8.30
2018-11-13T01:22:30.076Z,8.30
2018-11-13T01:24:58.432Z,8.30
2018-11-13T01:27:27.144Z,8.30
2018-11-13T01:29:56.100Z,8.20
2018-11-13T01:32:25.362Z,8.20
2018-11-13T01:34:53.882Z,8.20
2018-11-13T01:37:22.353Z,8.30
2018-11-13T01:39:50.731Z,8.30
2018-11-13T01:42:19.135Z,8.30
2018-11-13T01:44:47.512Z,8.30
2018-11-13T01:47:15.941Z,8.30
2018-11-13T01:49:44.331Z,8.30
2018-11-13T01:52:12.752Z,8.30
2018-11-13T01:54:41.163Z,8.30
2018-11-13T01:57:09.667Z,8.30
2018-11-13T01:59:38.047Z,8.30
2018-11-13T02:02:06.643Z,8.30
2018-11-13T02:04:35.048Z,8.40
2018-11-13T02:07:03.514Z,8.40
2018-11-13T02:09:32.007Z,8.40
2018-11-13T02:12:00.435Z,8.40
2018-11-13T02:14:28.868Z,8.40
2018-11-13T02:16:57.318Z,8.40
2018-11-13T02:19:25.720Z,8.40
2018-11-13T02:21:54.295Z,8.40
2018-11-13T02:24:22.680Z,8.30
2018-11-13T02:26:51.068Z,8.30
2018-11-13T02:29:19.474Z,8.40
2018-11-13T02:31:48.019Z,8.40
2018-11-13T02:34:16.412Z,8.40
2018-11-13T02:36:44.791Z,8.40
2018-11-13T02:39:13.277Z,8.40
2018-11-13T02:41:41.941Z,8.40
2018-11-13T02:44:10.427Z,8.30
2018-11-13T02:46:39.335Z,8.30
2018-11-13T02:49:07.870Z,8.30
2018-11-13T02:51:36.815Z,8.30
2018-11-13T02:54:05.515Z,8.30
2018-11-13T02:56:34.616Z,8.30
2018-11-13T02:59:03.277Z,8.30
2018-11-13T03:01:31.808Z,8.30
2018-11-13T03:04:00.319Z,8.30
2018-11-13T03:06:29.001Z,8.30
2018-11-13T03:08:57.519Z,8.30
2018-11-13T03:11:26.044Z,8.20
2018-11-13T03:13:54.631Z,8.30
2018-11-13T03:16:22.945Z,8.30
2018-11-13T03:18:51.867Z,8.20
2018-11-13T03:21:20.279Z,8.30
2018-11-13T03:23:48.684Z,8.20
2018-11-13T03:26:17.046Z,8.20
2018-11-13T03:28:45.494Z,8.20
2018-11-13T03:31:13.878Z,8.20
2018-11-13T03:33:42.347Z,8.10
2018-11-13T03:36:10.784Z,8.10
2018-11-13T03:38:39.279Z,8.10
2018-11-13T03:41:07.732Z,8.20
2018-11-13T03:43:36.215Z,8.20
2018-11-13T03:46:05.095Z,8.20
2018-11-13T03:48:33.867Z,8.20
2018-11-13T03:51:02.484Z,8.20
2018-11-13T03:53:30.907Z,8.20
2018-11-13T03:55:59.374Z,8.20
2018-11-13T03:58:27.762Z,8.10
2018-11-13T04:00:56.228Z,8.10
2018-11-13T04:03:24.653Z,8.10
2018-11-13T04:05:53.126Z,8.10
2018-11-13T04:08:21.562Z,8.10
2018-11-13T04:10:49.988Z,8.20
2018-11-13T04:13:18.379Z,8.10
2018-11-13T04:15:46.791Z,8.10
2018-11-13T04:18:15.233Z,8.10
2018-11-13T04:20:43.620Z,8.10
2018-11-13T04:23:12.069Z,8.10
2018-11-13T04:25:40.535Z,8.10
2018-11-13T04:28:08.972Z,8.10
2018-11-13T04:30:37.537Z,8.10
2018-11-13T04:33:05.821Z,8.10
2018-11-13T04:35:34.184Z,8.10
2018-11-13T04:38:02.580Z,8.10
2018-11-13T04:40:31.001Z,8.10
2018-11-13T04:43:00.392Z,8.20
2018-11-13T04:45:28.851Z,8.20
2018-11-13T04:47:57.225Z,8.20
2018-11-13T04:50:25.641Z,8.10
2018-11-13T04:52:54.020Z,8.10
2018-11-13T04:55:22.379Z,8.10
2018-11-13T04:57:50.926Z,8.10
2018-11-13T05:00:21.299Z,8.00
2018-11-13T05:02:49.793Z,8.00
2018-11-13T05:05:18.964Z,8.00
2018-11-13T05:07:48.621Z,8.00
2018-11-13T05:10:17.226Z,8.00
2018-11-13T05:12:46.404Z,8.10
2018-11-13T05:15:14.983Z,8.00
2018-11-13T05:17:44.108Z,8.00
2018-11-13T05:20:13.464Z,8.00
2018-11-13T05:22:41.983Z,8.00
2018-11-13T05:25:12.400Z,8.00
2018-11-13T05:27:41.213Z,8.00
2018-11-13T05:30:11.926Z,8.10
2018-11-13T05:32:40.423Z,8.10
2018-11-13T05:35:10.942Z,8.00
2018-11-13T05:37:39.997Z,8.00
2018-11-13T05:40:10.445Z,8.00
2018-11-13T05:42:39.198Z,8.00
2018-11-13T05:45:13.120Z,8.00
2018-11-13T05:47:41.659Z,8.00
2018-11-13T05:50:11.392Z,8.00
2018-11-13T05:52:40.536Z,8.00
2018-11-13T05:55:09.508Z,8.00
2018-11-13T05:57:38.046Z,8.00
2018-11-13T06:00:10.117Z,7.90
2018-11-13T06:02:38.763Z,7.90
2018-11-13T06:05:07.230Z,7.90
2018-11-13T06:07:35.690Z,7.90
2018-11-13T06:10:04.259Z,7.90
2018-11-13T06:12:32.759Z,7.90
2018-11-13T06:15:01.252Z,7.90
2018-11-13T06:17:29.735Z,7.90
2018-11-13T06:19:58.283Z,7.80
2018-11-13T06:22:26.784Z,7.80
2018-11-13T06:24:55.303Z,7.80
2018-11-13T06:27:23.875Z,7.70
2018-11-13T06:29:52.624Z,7.70
2018-11-13T06:32:21.072Z,7.60
2018-11-13T06:34:49.560Z,7.60
2018-11-13T06:37:18.089Z,7.60
2018-11-13T06:39:46.572Z,7.60
2018-11-13T06:42:15.082Z,7.60
2018-11-13T06:44:43.564Z,7.60
2018-11-13T06:47:12.055Z,7.50
2018-11-13T06:49:41.664Z,7.50
2018-11-13T06:52:10.076Z,7.50
2018-11-13T06:55:18.486Z,7.50
2018-11-13T06:57:49.915Z,7.50
2018-11-13T07:00:18.719Z,7.50
2018-11-13T07:02:47.212Z,7.50
2018-11-13T07:05:16.576Z,7.50
2018-11-13T07:07:45.411Z,7.50
2018-11-13T07:10:15.156Z,7.50
2018-11-13T07:12:44.994Z,7.50
2018-11-13T07:15:15.961Z,7.50
2018-11-13T07:17:45.864Z,7.50
2018-11-13T07:20:15.044Z,7.50
2018-11-13T07:22:43.843Z,7.50
2018-11-13T07:25:12.588Z,7.50
2018-11-13T07:27:41.654Z,7.50
2018-11-13T07:30:11.229Z,7.50
2018-11-13T07:32:40.303Z,7.50
2018-11-13T07:35:10.313Z,7.50
2018-11-13T07:37:39.737Z,7.50
2018-11-13T07:40:08.595Z,7.60
2018-11-13T07:42:37.126Z,7.70
2018-11-13T07:45:14.789Z,7.70
2018-11-13T07:47:49.542Z,7.80
2018-11-13T07:50:19.829Z,7.80
2018-11-13T07:52:48.468Z,7.80
2018-11-13T07:55:17.456Z,7.90
2018-11-13T07:57:46.042Z,7.90
2018-11-13T08:00:16.335Z,7.90
2018-11-13T08:02:46.372Z,7.90
2018-11-13T08:05:14.813Z,8.00
2018-11-13T08:07:43.320Z,8.00
2018-11-13T08:10:12.507Z,8.00
2018-11-13T08:12:41.034Z,7.90
2018-11-13T08:15:11.431Z,7.90
2018-11-13T08:17:40.052Z,7.90
2018-11-13T08:20:10.163Z,7.90
2018-11-13T08:22:38.657Z,8.00
2018-11-13T08:25:08.433Z,8.00
2018-11-13T08:27:37.244Z,8.00
2018-11-13T08:30:08.143Z,8.00
2018-11-13T08:32:36.870Z,8.10
2018-11-13T08:35:05.980Z,8.20
2018-11-13T08:37:34.405Z,8.20
2018-11-13T08:40:03.149Z,8.20
2018-11-13T08:42:31.734Z,8.20
2018-11-13T08:45:00.308Z,8.10
2018-11-13T08:47:28.817Z,8.10
2018-11-13T08:49:58.135Z,8.00
2018-11-13T08:52:27.311Z,7.90
2018-11-13T08:54:55.825Z,7.90
2018-11-13T08:57:24.335Z,8.00
2018-11-13T08:59:52.815Z,8.20
2018-11-13T09:02:21.327Z,8.20
2018-11-13T09:04:49.855Z,8.30
2018-11-13T09:07:18.449Z,8.30
2018-11-13T09:09:46.913Z,8.50
2018-11-13T09:12:15.861Z,8.50
2018-11-13T09:14:44.275Z,8.60
2018-11-13T09:17:12.933Z,8.60
2018-11-13T09:19:41.476Z,8.60
2018-11-13T09:22:10.134Z,8.60
2018-11-13T09:24:38.595Z,8.60
2018-11-13T09:27:07.100Z,8.70
2018-11-13T09:29:35.670Z,8.70
2018-11-13T09:32:04.196Z,8.80
2018-11-13T09:34:32.701Z,8.80
2018-11-13T09:37:01.103Z,8.80
2018-11-13T09:39:29.608Z,8.80
2018-11-13T09:41:57.999Z,8.80
2018-11-13T09:44:26.521Z,8.80
2018-11-13T09:46:54.991Z,8.80
2018-11-13T09:49:23.463Z,8.70
2018-11-13T09:51:51.947Z,8.70
2018-11-13T09:54:20.368Z,8.70
2018-11-13T09:56:48.731Z,8.80
2018-11-13T09:59:17.250Z,8.80
2018-11-13T10:01:46.373Z,8.70
2018-11-13T10:04:15.341Z,8.80
2018-11-13T10:06:43.781Z,8.80
2018-11-13T10:09:13.823Z,8.90
2018-11-13T10:11:44.049Z,8.90
2018-11-13T10:14:13.351Z,8.90
2018-11-13T10:16:42.979Z,9.00
2018-11-13T10:19:12.131Z,9.00
2018-11-13T10:21:42.209Z,9.20
2018-11-13T10:24:11.226Z,9.10
2018-11-13T10:26:40.291Z,9.10
2018-11-13T10:29:09.351Z,9.20
2018-11-13T10:31:38.519Z,9.20
2018-11-13T10:34:07.664Z,9.20
2018-11-13T10:36:36.540Z,9.20
2018-11-13T10:39:08.351Z,9.20
2018-11-13T10:41:37.471Z,9.20
2018-11-13T10:44:06.577Z,9.20
2018-11-13T10:46:35.680Z,9.20
2018-11-13T10:49:05.020Z,9.10
2018-11-13T10:51:34.140Z,9.20
2018-11-13T10:54:03.189Z,9.20
2018-11-13T10:56:32.239Z,9.40
2018-11-13T10:59:00.763Z,9.40
2018-11-13T11:01:35.207Z,9.40
2018-11-13T11:04:09.674Z,9.50
2018-11-13T11:06:38.381Z,9.60
2018-11-13T11:09:09.222Z,9.50
2018-11-13T11:11:39.003Z,9.50
2018-11-13T11:14:08.102Z,9.50
2018-11-13T11:16:37.126Z,9.50
2018-11-13T11:19:06.317Z,9.60
2018-11-13T11:21:35.405Z,9.50
2018-11-13T11:24:04.506Z,9.40
2018-11-13T11:26:33.084Z,9.30
2018-11-13T11:29:01.490Z,9.30
2018-11-13T11:31:29.996Z,9.30
2018-11-13T11:33:58.539Z,9.20
2018-11-13T11:36:27.078Z,9.20
2018-11-13T11:38:55.836Z,9.20
2018-11-13T11:41:24.389Z,9.20
2018-11-13T11:43:52.979Z,9.30
2018-11-13T11:46:21.479Z,9.30
2018-11-13T11:48:49.968Z,9.30
2018-11-13T11:51:18.430Z,9.40
2018-11-13T11:53:46.905Z,9.50
2018-11-13T11:56:15.380Z,9.70
2018-11-13T11:58:43.932Z,9.80
2018-11-13T12:01:12.448Z,9.80
2018-11-13T12:03:41.013Z,9.70
2018-11-13T12:06:09.541Z,9.50
2018-11-13T12:08:38.015Z,9.40
2018-11-13T12:11:06.586Z,9.30
2018-11-13T12:13:35.099Z,9.40
2018-11-13T12:16:03.696Z,9.60
2018-11-13T12:18:32.219Z,9.70
2018-11-13T12:21:00.718Z,9.80
2018-11-13T12:23:29.204Z,9.80
2018-11-13T12:25:57.764Z,9.90
2018-11-13T12:28:26.316Z,10.00
2018-11-13T12:30:54.797Z,10.10
2018-11-13T12:33:23.328Z,10.20
2018-11-13T12:35:51.950Z,10.40
2018-11-13T12:38:20.483Z,10.30
2018-11-13T12:40:49.027Z,10.30
2018-11-13T12:43:17.545Z,10.50
2018-11-13T12:45:46.060Z,10.60
2018-11-13T12:48:14.631Z,10.60
2018-11-13T12:50:49.608Z,10.40
2018-11-13T12:53:18.123Z,10.20
2018-11-13T12:55:46.700Z,10.20
2018-11-13T12:58:15.332Z,10.00
2018-11-13T13:00:43.931Z,9.80
2018-11-13T13:03:12.429Z,9.70
2018-11-13T13:05:41.036Z,9.60
2018-11-13T13:08:09.547Z,9.60
2018-11-13T13:10:38.181Z,9.60
2018-11-13T13:13:06.669Z,9.60
2018-11-13T13:15:35.111Z,9.60
2018-11-13T13:18:03.563Z,9.50
2018-11-13T13:20:32.055Z,9.50
2018-11-13T13:23:01.305Z,9.40
2018-11-13T13:25:29.947Z,9.10
2018-11-13T13:27:58.501Z,8.70
2018-11-13T13:30:27.174Z,8.50
2018-11-13T13:32:55.677Z,8.30
2018-11-13T13:35:41.320Z,8.10
2018-11-13T13:38:10.250Z,8.10
2018-11-13T13:40:39.591Z,8.10
2018-11-13T13:43:08.913Z,8.20
2018-11-13T13:45:37.544Z,8.20
2018-11-13T13:48:06.015Z,8.20
2018-11-13T13:50:34.717Z,8.10
2018-11-13T13:53:04.436Z,8.10
2018-11-13T13:55:33.139Z,8.00
2018-11-13T13:58:01.845Z,7.80
2018-11-13T14:00:30.499Z,7.80
2018-11-13T14:02:59.244Z,7.70
2018-11-13T14:05:27.783Z,7.60
2018-11-13T14:07:56.266Z,7.50
2018-11-13T14:10:24.759Z,7.40
2018-11-13T14:12:53.283Z,7.40
2018-11-13T14:15:21.875Z,7.30
2018-11-13T14:17:50.543Z,7.30
2018-11-13T14:20:20.251Z,7.30
2018-11-13T14:22:48.782Z,7.30
2018-11-13T14:25:17.308Z,7.30
2018-11-13T14:27:46.300Z,7.30
2018-11-13T14:30:17.506Z,7.30
2018-11-13T14:32:46.979Z,7.40
2018-11-13T14:35:15.813Z,7.40
2018-11-13T14:37:44.385Z,7.40
2018-11-13T14:40:21.335Z,7.40
2018-11-13T14:42:50.056Z,7.40
2018-11-13T14:45:19.540Z,7.40
2018-11-13T14:47:48.699Z,7.30
2018-11-13T14:50:18.432Z,7.30
2018-11-13T14:52:47.685Z,7.40
2018-11-13T14:55:18.522Z,7.40
2018-11-13T14:57:47.335Z,7.40
2018-11-13T15:00:17.243Z,7.40
2018-11-13T15:02:46.036Z,7.50
2018-11-13T15:05:15.684Z,7.40
2018-11-13T15:07:45.257Z,7.50
2018-11-13T15:10:15.745Z,7.50
2018-11-13T15:12:44.548Z,7.50
2018-11-13T15:15:13.407Z,7.40
2018-11-13T15:17:42.790Z,7.50
2018-11-13T15:20:13.421Z,7.50
2018-11-13T15:22:42.819Z,7.40
2018-11-13T15:25:13.011Z,7.40
2018-11-13T15:27:42.164Z,7.30
2018-11-13T15:30:15.027Z,7.20
2018-11-13T15:32:44.381Z,7.20
2018-11-13T15:35:19.466Z,7.10
2018-11-13T15:37:47.983Z,7.00
2018-11-13T15:40:18.485Z,7.00
2018-11-13T15:42:47.112Z,6.90
2018-11-13T15:45:16.594Z,6.90
2018-11-13T15:47:46.033Z,6.90
2018-11-13T15:50:17.161Z,7.00
2018-11-13T15:52:45.664Z,7.00
2018-11-13T15:55:14.825Z,6.90
2018-11-13T15:57:44.065Z,6.80
2018-11-13T16:00:17.232Z,6.70
2018-11-13T16:02:45.906Z,6.70
2018-11-13T16:05:31.089Z,6.70
2018-11-13T16:08:00.685Z,6.70
2018-11-13T16:10:29.206Z,6.70
2018-11-13T16:12:57.922Z,6.60
2018-11-13T16:15:26.883Z,6.60
2018-11-13T16:17:56.424Z,6.50
2018-11-13T16:20:25.791Z,6.40
2018-11-13T16:22:54.276Z,6.40
2018-11-13T16:25:22.731Z,6.30
2018-11-13T16:27:51.311Z,6.30
2018-11-13T16:30:23.035Z,6.30
2018-11-13T16:32:51.956Z,6.40
2018-11-13T16:35:21.417Z,6.40
2018-11-13T16:37:50.411Z,6.40
2018-11-13T16:40:27.519Z,6.40
2018-11-13T16:42:55.902Z,6.40
2018-11-13T16:45:26.324Z,6.50
2018-11-13T16:47:56.404Z,6.60
2018-11-13T16:50:30.580Z,6.60
2018-11-13T16:53:00.137Z,6.50
2018-11-13T16:55:34.370Z,6.50
2018-11-13T16:58:05.618Z,6.40
2018-11-13T17:00:35.186Z,6.40
2018-11-13T17:03:05.771Z,6.30
2018-11-13T17:05:36.427Z,6.30
2018-11-13T17:08:06.556Z,6.30
2018-11-13T17:10:40.108Z,6.30
2018-11-13T17:13:13.006Z,6.20
2018-11-13T17:15:41.465Z,6.20
2018-11-13T17:18:09.836Z,6.30
2018-11-13T17:20:38.229Z,6.10
2018-11-13T17:23:06.611Z,6.00
2018-11-13T17:25:37.480Z,6.00
2018-11-13T17:28:07.598Z,6.00
2018-11-13T17:30:38.642Z,6.00
2018-11-13T17:33:09.787Z,6.00
2018-11-13T17:35:39.826Z,6.00
2018-11-13T17:38:09.536Z,6.10
2018-11-13T17:40:39.276Z,6.20
2018-11-13T17:43:09.355Z,6.20
2018-11-13T17:45:40.868Z,6.30
2018-11-13T17:48:14.548Z,6.40
2018-11-13T17:50:45.394Z,6.50
2018-11-13T17:53:15.704Z,6.60
2018-11-13T17:55:45.270Z,6.70
2018-11-13T17:58:15.726Z,6.80
2018-11-13T18:00:47.637Z,6.80
2018-11-13T18:03:18.429Z,6.80
2018-11-13T18:05:49.101Z,6.80
2018-11-13T18:08:20.802Z,6.80
2018-11-13T18:10:52.553Z,6.80
2018-11-13T18:13:22.044Z,6.90
2018-11-13T18:15:51.706Z,6.90
2018-11-13T18:18:21.306Z,6.90
2018-11-13T18:20:51.060Z,6.90
2018-11-13T18:23:22.348Z,6.90
2018-11-13T18:25:52.494Z,6.80
2018-11-13T18:28:22.747Z,6.80
2018-11-13T18:30:52.574Z,6.80
2018-11-13T18:33:22.592Z,6.80
2018-11-13T18:35:52.204Z,6.60
2018-11-13T18:38:22.104Z,6.60
2018-11-13T18:40:51.797Z,6.60
2018-11-13T18:43:22.232Z,6.50
2018-11-13T18:45:53.622Z,6.50
2018-11-13T18:48:23.453Z,6.40
2018-11-13T18:50:54.371Z,6.20
2018-11-13T18:53:24.188Z,6.10
2018-11-13T18:55:54.434Z,6.10
2018-11-13T18:58:24.103Z,6.00
2018-11-13T19:00:54.831Z,6.00
2018-11-13T19:03:24.603Z,5.90
2018-11-13T19:05:54.665Z,5.90
2018-11-13T19:08:31.808Z,5.90
2018-11-13T19:11:03.057Z,5.90
2018-11-13T19:13:33.052Z,5.90
2018-11-13T19:16:04.762Z,5.90
2018-11-13T19:18:35.199Z,5.90
2018-11-13T19:21:03.841Z,6.10
2018-11-13T19:23:32.274Z,6.20
2018-11-13T19:26:00.743Z,6.20
2018-11-13T19:28:29.136Z,6.20
2018-11-13T19:30:57.593Z,6.20
2018-11-13T19:33:25.957Z,6.30
2018-11-13T19:35:54.525Z,6.40
2018-11-13T19:38:22.807Z,6.40
2018-11-13T19:40:51.226Z,6.40
2018-11-13T19:43:19.579Z,6.40
2018-11-13T19:45:47.996Z,6.40
2018-11-13T19:48:16.618Z,6.40
2018-11-13T19:50:45.045Z,6.40
2018-11-13T19:53:13.574Z,6.40
2018-11-13T19:55:41.906Z,6.40
2018-11-13T19:58:10.321Z,6.50
2018-11-13T20:00:39.364Z,6.50
2018-11-13T20:03:09.085Z,6.50
2018-11-13T20:05:37.536Z,6.60
2018-11-13T20:08:06.927Z,6.60
2018-11-13T20:10:36.165Z,6.60
2018-11-13T20:13:05.516Z,6.70
2018-11-13T20:15:34.711Z,6.70
2018-11-13T20:18:03.170Z,6.70
2018-11-13T20:20:32.590Z,6.70
2018-11-13T20:23:02.179Z,6.70
2018-11-13T20:25:31.985Z,6.70
2018-11-13T20:28:08.635Z,6.70
2018-11-13T20:30:38.344Z,6.70
2018-11-13T20:33:07.835Z,6.70
2018-11-13T20:35:36.287Z,6.70
2018-11-13T20:38:04.972Z,6.70
2018-11-13T20:40:34.887Z,6.80
2018-11-13T20:43:04.684Z,6.80
2018-11-13T20:45:33.277Z,6.80
2018-11-13T20:48:01.770Z,6.70
2018-11-13T20:50:31.499Z,6.60
2018-11-13T20:53:00.056Z,6.60
2018-11-13T20:55:28.646Z,6.50
2018-11-13T20:57:57.141Z,6.30
2018-11-13T21:00:28.682Z,6.20
2018-11-13T21:02:57.370Z,6.20
2018-11-13T21:05:25.947Z,6.20
2018-11-13T21:07:54.519Z,6.30
2018-11-13T21:10:23.316Z,6.40
2018-11-13T21:12:52.451Z,6.50
2018-11-13T21:18:13.696Z,6.50
2018-11-13T21:20:42.078Z,6.50
2018-11-13T21:23:10.427Z,6.50
2018-11-13T21:25:38.845Z,6.50
2018-11-13T21:28:07.649Z,6.50
2018-11-13T21:30:36.023Z,6.50
2018-11-13T21:33:05.096Z,6.50
2018-11-13T21:35:33.540Z,6.50
2018-11-13T21:38:01.963Z,6.50
2018-11-13T21:40:30.327Z,6.60
2018-11-13T21:42:58.926Z,6.60
2018-11-13T21:45:28.155Z,6.60
2018-11-13T21:47:56.530Z,6.60
2018-11-13T21:50:27.136Z,6.50
2018-11-13T21:52:55.508Z,6.50
2018-11-13T21:55:24.985Z,6.50
2018-11-13T21:57:53.425Z,6.50
2018-11-13T22:00:24.865Z,6.40
2018-11-13T22:02:56.627Z,6.40
2018-11-13T22:05:26.157Z,6.40
2018-11-13T22:07:54.545Z,6.30
2018-11-13T22:10:22.947Z,6.30
2018-11-13T22:12:51.335Z,6.20
2018-11-13T22:15:21.748Z,6.20
2018-11-13T22:17:50.160Z,6.10
2018-11-13T22:20:19.167Z,6.10
2018-11-13T22:22:48.353Z,6.00
2018-11-13T22:25:19.616Z,6.00
2018-11-13T22:27:49.043Z,6.00
2018-11-13T22:30:19.601Z,5.90
2018-11-13T22:32:49.391Z,6.00
2018-11-13T22:35:18.308Z,6.00
2018-11-13T22:37:46.707Z,6.00
2018-11-13T22:40:20.401Z,6.00
2018-11-13T22:42:49.096Z,6.00
2018-11-13T22:45:23.631Z,6.00
2018-11-13T22:47:52.932Z,6.10
2018-11-13T22:50:22.739Z,6.10
2018-11-13T22:52:51.426Z,6.20
2018-11-13T22:55:20.096Z,6.30
2018-11-13T22:57:49.593Z,6.30
2018-11-13T23:00:21.271Z,6.40
2018-11-13T23:02:50.957Z,6.50
2018-11-13T23:05:19.567Z,6.50
2018-11-13T23:07:48.004Z,6.50
2018-11-13T23:10:16.983Z,6.50
2018-11-13T23:12:46.305Z,6.60
2018-11-13T23:15:17.277Z,6.60
2018-11-13T23:17:47.010Z,6.60
2018-11-13T23:20:17.763Z,6.70
2018-11-13T23:22:47.230Z,6.70
2018-11-13T23:25:18.392Z,6.70
2018-11-13T23:27:48.614Z,6.70
2018-11-13T23:30:19.502Z,6.70
2018-11-13T23:32:49.325Z,6.60
2018-11-13T23:35:18.007Z,6.60
2018-11-13T23:37:48.527Z,6.60
2018-11-13T23:40:18.066Z,6.60
2018-11-13T23:42:47.745Z,6.60
2018-11-13T23:45:18.157Z,6.60
2018-11-13T23:47:47.167Z,6.60
2018-11-13T23:50:15.659Z,6.60
2018-11-13T23:52:44.685Z,6.60
2018-11-13T23:55:13.847Z,6.70
2018-11-13T23:57:42.839Z,6.60
